Time;durP1;ratioP1;P1;durP2;ratioP2;P2;SDS_P1;SDS_P2;PMS_P1;PMS_P2;Temp;Humidity;BMP_temperature;BMP_pressure;BME280_temperature;BME280_humidity;BME280_pressure;Samples;Min_cycle;Max_cycle;Signal;HPM_P1;HPM_P2
2021/12/17 00:03:07;;;;;;;0.40;0.27;;;;;;;6.40;100.00;103135.06;5035139;28;20482;-71
2021/12/17 00:05:20;;;;;;;1.90;1.80;;;;;;;6.40;100.00;103135.91;5034698;28;20517;-71
2021/12/17 00:07:46;;;;;;;0.40;0.30;;;;;;;6.42;100.00;103141.06;5034861;28;20454;-71
2021/12/17 00:10:16;;;;;;;0.40;0.30;;;;;;;6.42;100.00;103143.75;5035008;28;20467;-71
2021/12/17 00:12:44;;;;;;;0.40;0.30;;;;;;;6.40;100.00;103143.16;5035038;28;20497;-71
2021/12/17 00:15:11;;;;;;;0.40;0.30;;;;;;;6.39;100.00;103153.09;5034838;28;20487;-71
2021/12/17 00:17:48;;;;;;;0.40;0.30;;;;;;;6.45;100.00;103156.81;5034486;28;20461;-71
2021/12/17 00:50:35;;;;;;;0.40;0.30;;;;;;;6.47;100.00;103154.75;5034026;28;20889;-70
2021/12/17 00:53:02;;;;;;;0.40;0.30;;;;;;;6.42;100.00;103135.69;5034286;28;20461;-71
2021/12/17 00:55:30;;;;;;;0.40;0.30;;;;;;;6.43;100.00;103137.34;5034066;28;20483;-71
2021/12/17 00:57:56;;;;;;;0.40;0.30;;;;;;;6.51;100.00;103146.03;5034056;28;20462;-71
2021/12/17 01:00:24;;;;;;;0.40;0.20;;;;;;;6.54;100.00;103140.22;5033945;28;20944;-71
2021/12/17 01:02:51;;;;;;;0.40;0.23;;;;;;;6.51;100.00;103137.97;5034014;28;20443;-73
2021/12/17 01:05:22;;;;;;;0.87;0.87;;;;;;;6.57;100.00;103144.34;5034115;28;20450;-73
2021/12/17 01:07:51;;;;;;;0.40;0.30;;;;;;;6.59;100.00;103155.72;5033936;28;20434;-74
2021/12/17 01:10:20;;;;;;;0.40;0.23;;;;;;;6.64;100.00;103155.09;5035264;28;20465;-72
2021/12/17 01:12:48;;;;;;;0.40;0.30;;;;;;;6.68;100.00;103157.16;5033852;28;20447;-72
2021/12/17 01:15:18;;;;;;;0.40;0.30;;;;;;;6.72;100.00;103162.97;5033817;28;20483;-72
2021/12/17 01:17:47;;;;;;;1.80;1.70;;;;;;;6.71;100.00;103151.34;5033351;28;20498;-73
2021/12/17 01:20:29;;;;;;;0.40;0.30;;;;;;;6.64;100.00;103145.19;5033675;28;20474;-72
2021/12/17 01:23:13;;;;;;;0.40;0.30;;;;;;;6.67;100.00;103138.53;5033358;28;20442;-69
2021/12/17 01:35:18;;;;;;;0.40;0.30;;;;;;;6.65;100.00;103141.44;5033729;28;20427;-70
2021/12/17 01:36:53;;;;;;;0.40;0.30;;;;;;;6.56;100.00;103154.31;5033126;28;20794;-71
2021/12/17 01:40:34;;;;;;;0.40;0.30;;;;;;;6.46;100.00;103153.06;5033119;28;20842;-71
2021/12/17 01:42:30;;;;;;;0.40;0.30;;;;;;;6.42;100.00;103157.22;5032911;28;20467;-72
2021/12/17 01:44:58;;;;;;;0.40;0.30;;;;;;;6.46;100.00;103162.00;5033036;28;20793;-72
2021/12/17 01:47:25;;;;;;;0.40;0.20;;;;;;;6.48;100.00;103164.47;5033154;28;20431;-72
2021/12/17 02:00:53;;;;;;;0.40;0.30;;;;;;;6.50;100.00;103159.69;5033080;28;20493;-71
2021/12/17 02:03:20;;;;;;;0.40;0.30;;;;;;;6.48;100.00;103156.38;5032781;28;20818;-72
2021/12/17 02:05:47;;;;;;;0.40;0.30;;;;;;;6.55;100.00;103154.50;5033162;28;20439;-72
2021/12/17 02:08:14;;;;;;;0.40;0.30;;;;;;;6.57;100.00;103147.88;5032846;28;20451;-72
2021/12/17 02:22:09;;;;;;;0.40;0.20;;;;;;;6.48;100.00;103130.28;5032732;28;20537;-70
2021/12/17 02:30:38;;;;;;;0.40;0.30;;;;;;;6.42;100.00;103117.69;5032463;28;20838;-69
2021/12/17 02:33:05;;;;;;;0.40;0.27;;;;;;;6.42;100.00;103120.38;5033160;28;20443;-69
2021/12/17 02:35:35;;;;;;;0.40;0.30;;;;;;;6.36;100.00;103121.19;5032845;28;20494;-70
2021/12/17 02:38:04;;;;;;;0.40;0.20;;;;;;;6.33;100.00;103121.63;5032941;28;20520;-68
2021/12/17 02:45:58;;;;;;;0.40;0.30;;;;;;;6.15;100.00;103134.88;5032331;28;20493;-70
2021/12/17 02:48:25;;;;;;;0.40;0.30;;;;;;;6.24;100.00;103120.19;5032751;28;20447;-70
2021/12/17 02:50:53;;;;;;;0.40;0.27;;;;;;;6.22;100.00;103114.19;5032542;28;20447;-71
2021/12/17 02:53:23;;;;;;;0.40;0.30;;;;;;;6.21;100.00;103129.50;5035119;28;20459;-71
2021/12/17 02:55:52;;;;;;;0.40;0.30;;;;;;;6.26;100.00;103131.56;5036232;28;20487;-70
2021/12/17 02:58:21;;;;;;;0.40;0.30;;;;;;;6.29;100.00;103131.16;5036260;28;20432;-69
2021/12/17 03:00:48;;;;;;;0.40;0.27;;;;;;;6.31;100.00;103132.59;5036146;28;20467;-68
2021/12/17 03:03:15;;;;;;;0.40;0.30;;;;;;;6.27;100.00;103133.22;5035956;28;20957;-68
2021/12/17 03:05:42;;;;;;;0.40;0.30;;;;;;;6.26;100.00;103135.09;5036485;28;20451;-69
2021/12/17 03:08:13;;;;;;;0.40;0.30;;;;;;;6.27;100.00;103134.06;5036295;28;20455;-70
2021/12/17 03:10:41;;;;;;;0.40;0.30;;;;;;;6.26;100.00;103124.31;5036156;28;20470;-70
2021/12/17 03:13:09;;;;;;;0.40;0.30;;;;;;;6.28;100.00;103124.94;5036322;28;20442;-70
2021/12/17 03:15:41;;;;;;;0.40;0.20;;;;;;;6.32;100.00;103120.78;5036097;28;20483;-71
2021/12/17 03:23:40;;;;;;;0.40;0.30;;;;;;;6.34;100.00;103125.16;5042953;28;20775;-82
2021/12/17 03:26:10;;;;;;;0.40;0.30;;;;;;;6.37;100.00;103133.63;5044532;28;20423;-82
2021/12/17 03:28:38;;;;;;;0.40;0.30;;;;;;;6.39;100.00;103122.66;5072837;22;20489;-73
2021/12/17 03:31:05;;;;;;;0.40;0.30;;;;;;;6.36;100.00;103123.06;5075593;28;20438;-70
2021/12/17 03:33:31;;;;;;;0.40;0.30;;;;;;;6.34;100.00;103109.81;5075657;28;20456;-72
2021/12/17 03:35:58;;;;;;;0.40;0.30;;;;;;;6.40;100.00;103110.84;5075532;28;20485;-73
2021/12/17 03:38:26;;;;;;;0.40;0.30;;;;;;;6.35;100.00;103113.34;5075512;28;20504;-72
2021/12/17 03:41:03;;;;;;;0.50;0.30;;;;;;;6.33;100.00;103105.50;5075491;28;20452;-73
2021/12/17 03:43:32;;;;;;;0.40;0.30;;;;;;;6.35;100.00;103110.66;5075542;28;20513;-72
2021/12/17 03:45:59;;;;;;;0.40;0.30;;;;;;;6.39;100.00;103101.13;5075437;28;20467;-73
2021/12/17 03:48:29;;;;;;;0.40;0.20;;;;;;;6.41;100.00;103107.09;5075603;28;20472;-73
2021/12/17 03:50:55;;;;;;;0.40;0.20;;;;;;;6.38;100.00;103103.00;5075299;28;20445;-73
2021/12/17 03:53:21;;;;;;;0.40;0.20;;;;;;;6.35;100.00;103097.19;5075325;28;20448;-73
2021/12/17 03:55:49;;;;;;;0.40;0.30;;;;;;;6.35;100.00;103091.81;5074470;28;20481;-73
2021/12/17 03:58:17;;;;;;;0.40;0.20;;;;;;;6.32;100.00;103087.66;5075041;28;20479;-72
2021/12/17 04:00:44;;;;;;;0.40;0.30;;;;;;;6.31;100.00;103089.53;5074886;28;21008;-73
2021/12/17 04:03:11;;;;;;;0.40;0.30;;;;;;;6.26;100.00;103094.72;5074898;28;20441;-73
2021/12/17 04:05:38;;;;;;;5.30;5.00;;;;;;;6.24;100.00;103088.72;5075322;28;20446;-73
2021/12/17 04:08:05;;;;;;;0.40;0.20;;;;;;;6.27;100.00;103090.16;5074925;28;20442;-73
2021/12/17 04:10:40;;;;;;;0.40;0.20;;;;;;;6.30;100.00;103090.56;5074981;28;20471;-73
2021/12/17 04:13:24;;;;;;;0.40;0.30;;;;;;;6.29;100.00;103094.31;5074914;28;20428;-73
2021/12/17 04:15:56;;;;;;;0.40;0.30;;;;;;;6.26;100.00;103089.34;5074799;28;20466;-73
2021/12/17 04:18:23;;;;;;;0.40;0.30;;;;;;;6.24;100.00;103088.72;5074733;28;20516;-73
2021/12/17 04:20:49;;;;;;;0.40;0.20;;;;;;;6.22;100.00;103088.09;5074771;28;20472;-72
2021/12/17 04:23:16;;;;;;;0.40;0.20;;;;;;;6.23;100.00;103094.31;5074743;28;20451;-73
2021/12/17 04:25:42;;;;;;;0.40;0.30;;;;;;;6.22;100.00;103101.56;5074364;28;20992;-73
2021/12/17 04:28:09;;;;;;;0.40;0.30;;;;;;;6.22;100.00;103106.13;5074418;28;20445;-73
2021/12/17 04:30:37;;;;;;;0.40;0.30;;;;;;;6.24;100.00;103112.97;5074636;28;20788;-73
2021/12/17 04:33:06;;;;;;;0.40;0.30;;;;;;;6.31;100.00;103104.84;5074317;28;20470;-72
2021/12/17 04:35:33;;;;;;;0.40;0.30;;;;;;;6.35;100.00;103105.28;5074365;28;20538;-73
2021/12/17 04:38:00;;;;;;;0.40;0.27;;;;;;;6.34;100.00;103090.16;5074332;28;20496;-73
2021/12/17 04:40:27;;;;;;;0.40;0.27;;;;;;;6.37;100.00;103089.72;5074045;28;20950;-72
2021/12/17 04:43:01;;;;;;;0.40;0.30;;;;;;;6.32;100.00;103088.47;5074411;28;20570;-74
2021/12/17 04:45:28;;;;;;;0.40;0.30;;;;;;;6.36;100.00;103085.38;5074247;28;20430;-73
2021/12/17 04:58:53;;;;;;;0.40;0.30;;;;;;;6.09;100.00;103115.03;5073847;28;20854;-73
2021/12/17 05:01:20;;;;;;;0.40;0.20;;;;;;;6.17;100.00;103112.13;5074077;28;20484;-73
2021/12/17 05:03:46;;;;;;;0.40;0.20;;;;;;;6.13;100.00;103110.88;5074445;28;20448;-73
2021/12/17 05:06:15;;;;;;;0.40;0.30;;;;;;;6.18;100.00;103121.84;5073910;28;20448;-73
2021/12/17 05:08:41;;;;;;;0.40;0.30;;;;;;;6.23;100.00;103113.97;5073539;28;21041;-73
2021/12/17 05:11:23;;;;;;;0.40;0.30;;;;;;;6.32;100.00;103119.97;5074078;28;20473;-73
2021/12/17 05:19:23;;;;;;;0.40;0.30;;;;;;;6.29;100.00;103115.84;5050451;28;20461;-72
2021/12/17 05:21:51;;;;;;;0.40;0.33;;;;;;;6.26;100.00;103113.56;5073384;28;20449;-72
2021/12/17 05:24:17;;;;;;;0.40;0.20;;;;;;;6.30;100.00;103112.09;5073246;28;20445;-73
2021/12/17 05:26:44;;;;;;;0.40;0.30;;;;;;;6.24;100.00;103112.09;5073315;28;20444;-73
2021/12/17 05:29:10;;;;;;;0.60;0.60;;;;;;;6.05;100.00;103114.59;5072975;28;20905;-73
2021/12/17 05:31:37;;;;;;;0.40;0.27;;;;;;;6.04;100.00;103098.69;5073203;28;20471;-73
2021/12/17 05:34:03;;;;;;;0.40;0.30;;;;;;;6.12;100.00;103113.78;5073435;28;20445;-73
2021/12/17 05:36:30;;;;;;;0.40;0.23;;;;;;;6.03;100.00;103121.25;5073405;28;20481;-73
2021/12/17 05:38:57;;;;;;;0.40;0.30;;;;;;;5.95;100.00;103116.91;5073417;28;20494;-73
2021/12/17 05:41:24;;;;;;;0.40;0.30;;;;;;;5.80;100.00;103119.78;5073101;28;20445;-72
2021/12/17 05:43:56;;;;;;;0.40;0.30;;;;;;;5.82;100.00;103123.06;5073046;28;20441;-73
2021/12/17 05:46:36;;;;;;;0.40;0.30;;;;;;;5.86;100.00;103130.72;5073361;28;20422;-72
2021/12/17 05:49:03;;;;;;;0.40;0.30;;;;;;;5.91;100.00;103139.84;5073242;28;20563;-72
2021/12/17 05:51:30;;;;;;;0.40;0.30;;;;;;;6.00;100.00;103140.50;5073275;28;20458;-73
2021/12/17 05:53:58;;;;;;;0.40;0.20;;;;;;;5.90;100.00;103146.25;5073210;28;20447;-72
2021/12/17 05:56:24;;;;;;;0.40;0.30;;;;;;;6.02;100.00;103149.16;5072865;28;21097;-72
2021/12/17 05:58:50;;;;;;;0.40;0.30;;;;;;;6.07;100.00;103150.22;5073222;28;20484;-72
2021/12/17 06:01:17;;;;;;;0.40;0.30;;;;;;;6.13;100.00;103150.44;5072858;28;20962;-72
2021/12/17 06:03:43;;;;;;;0.40;0.30;;;;;;;6.12;100.00;103149.59;5073183;28;20814;-72
2021/12/17 06:06:10;;;;;;;0.40;0.30;;;;;;;5.95;100.00;103145.66;5073157;28;20433;-72
2021/12/17 06:08:36;;;;;;;0.40;0.30;;;;;;;5.91;100.00;103144.38;5073049;28;20461;-72
2021/12/17 06:11:04;;;;;;;0.40;0.30;;;;;;;5.95;100.00;103142.97;5072931;28;20442;-72
2021/12/17 06:13:30;;;;;;;0.40;0.30;;;;;;;5.96;100.00;103131.19;5072777;28;20437;-72
2021/12/17 06:15:57;;;;;;;0.40;0.30;;;;;;;6.00;100.00;103132.41;5072727;28;20477;-72
2021/12/17 06:18:23;;;;;;;0.40;0.30;;;;;;;5.99;100.00;103139.66;5072769;28;20473;-72
2021/12/17 06:20:50;;;;;;;0.40;0.20;;;;;;;5.94;100.00;103138.63;5073096;28;20441;-72
2021/12/17 06:23:16;;;;;;;0.40;0.20;;;;;;;6.00;100.00;103132.41;5073071;28;20445;-72
2021/12/17 06:25:42;;;;;;;0.40;0.30;;;;;;;6.02;100.00;103135.72;5073306;28;20440;-72
2021/12/17 06:28:10;;;;;;;0.40;0.30;;;;;;;6.00;100.00;103135.94;5076549;28;20445;-71
2021/12/17 06:30:36;;;;;;;0.40;0.27;;;;;;;6.05;100.00;103138.00;5076931;28;20438;-72
2021/12/17 06:33:03;;;;;;;0.40;0.20;;;;;;;6.03;100.00;103138.22;5076712;28;20452;-72
2021/12/17 06:35:30;;;;;;;0.40;0.30;;;;;;;6.06;100.00;103134.25;5076766;28;20468;-72
2021/12/17 06:37:56;;;;;;;0.40;0.30;;;;;;;6.10;100.00;103132.81;5076658;28;20441;-72
2021/12/17 06:40:23;;;;;;;0.40;0.30;;;;;;;6.06;100.00;103140.50;5076328;28;20938;-71
2021/12/17 06:42:49;;;;;;;0.40;0.30;;;;;;;6.09;100.00;103141.09;5076648;28;20445;-70
2021/12/17 06:45:23;;;;;;;0.40;0.30;;;;;;;6.09;100.00;103136.56;5075358;28;20518;-69
2021/12/17 06:47:58;;;;;;;0.40;0.30;;;;;;;6.14;100.00;103149.38;5056547;28;20605;-70
2021/12/17 06:56:42;;;;;;;0.40;0.30;;;;;;;6.18;100.00;103150.63;5056109;28;20417;-70
2021/12/17 06:59:08;;;;;;;0.40;0.30;;;;;;;6.14;100.00;103150.22;5055798;28;20458;-70
2021/12/17 07:07:51;;;;;;;0.40;0.30;;;;;;;6.20;100.00;103153.94;5055938;28;20410;-69
2021/12/17 07:10:14;;;;;;;0.40;0.30;;;;;;;6.24;100.00;103164.09;5055549;28;20466;-69
2021/12/17 07:19:02;;;;;;;0.40;0.30;;;;;;;6.26;100.00;103156.63;5055808;28;20808;-70
2021/12/17 07:21:34;;;;;;;0.40;0.30;;;;;;;6.27;100.00;103149.38;5055433;28;20889;-70
2021/12/17 07:32:49;;;;;;;0.40;0.30;;;;;;;6.23;100.00;103157.03;5055747;28;20418;-70
2021/12/17 07:40:52;;;;;;;0.40;0.20;;;;;;;6.31;100.00;103172.97;5055336;28;20907;-70
2021/12/17 07:43:26;;;;;;;0.40;0.30;;;;;;;6.29;100.00;103164.28;5055525;28;20442;-70
2021/12/17 07:45:53;;;;;;;0.80;0.50;;;;;;;6.24;100.00;103156.00;5055471;28;20875;-71
2021/12/17 07:48:20;;;;;;;0.40;0.20;;;;;;;6.32;100.00;103157.66;5055377;28;20473;-70
2021/12/17 07:50:49;;;;;;;0.40;0.30;;;;;;;6.43;100.00;103158.88;5055365;28;20442;-71
2021/12/17 07:53:17;;;;;;;0.40;0.20;;;;;;;6.43;100.00;103148.13;5054997;28;20442;-70
2021/12/17 07:55:44;;;;;;;0.40;0.30;;;;;;;6.43;100.00;103154.34;5055227;28;20442;-69
2021/12/17 07:58:11;;;;;;;0.40;0.30;;;;;;;6.45;100.00;103151.41;5055104;28;20485;-68
2021/12/17 08:00:37;;;;;;;0.40;0.30;;;;;;;6.46;100.00;103153.06;5055231;28;20469;-71
2021/12/17 08:03:04;;;;;;;0.40;0.30;;;;;;;6.50;100.00;103157.00;5054887;28;20445;-71
2021/12/17 08:05:30;;;;;;;0.40;0.30;;;;;;;6.51;100.00;103142.53;5055182;28;20443;-72
2021/12/17 08:07:58;;;;;;;0.40;0.30;;;;;;;6.48;100.00;103146.44;5054756;28;20442;-68
2021/12/17 08:10:25;;;;;;;0.40;0.30;;;;;;;6.53;100.00;103138.56;5055191;28;20446;-68
2021/12/17 08:12:54;;;;;;;0.40;0.30;;;;;;;6.55;100.00;103146.41;5054958;28;20449;-69
2021/12/17 08:15:28;;;;;;;0.40;0.30;;;;;;;6.48;100.00;103146.44;5054923;28;20453;-69
2021/12/17 08:18:18;;;;;;;0.40;0.30;;;;;;;6.49;100.00;103145.41;5054431;28;21060;-70
2021/12/17 08:26:18;;;;;;;1.03;1.03;;;;;;;6.52;100.00;103153.06;5054496;28;20452;-68
2021/12/17 08:28:54;;;;;;;0.40;0.30;;;;;;;6.50;100.00;103149.75;5054357;28;20582;-70
2021/12/17 08:31:22;;;;;;;0.40;0.30;;;;;;;6.54;100.00;103142.09;5054642;28;20430;-69
2021/12/17 08:33:49;;;;;;;0.40;0.40;;;;;;;6.58;100.00;103133.38;5054557;28;20426;-69
2021/12/17 08:36:15;;;;;;;0.40;0.20;;;;;;;6.62;100.00;103132.94;5054454;28;20441;-69
2021/12/17 08:38:43;;;;;;;0.40;0.30;;;;;;;6.62;100.00;103141.03;5054486;28;20875;-69
2021/12/17 08:41:10;;;;;;;0.40;0.30;;;;;;;6.66;100.00;103148.47;5054447;28;20442;-68
2021/12/17 08:43:36;;;;;;;0.40;0.27;;;;;;;6.66;100.00;103147.66;5054296;28;20461;-69
2021/12/17 08:46:03;;;;;;;0.40;0.30;;;;;;;6.63;100.00;103158.84;5054281;28;20453;-69
2021/12/17 08:48:30;;;;;;;0.40;0.30;;;;;;;6.67;100.00;103154.69;5054207;28;20462;-69
2021/12/17 08:50:56;;;;;;;0.40;0.30;;;;;;;6.73;100.00;103146.59;5053030;28;20954;-68
2021/12/17 08:53:23;;;;;;;0.40;0.30;;;;;;;6.63;100.00;103148.88;5053905;28;20825;-69
2021/12/17 08:55:51;;;;;;;0.40;0.30;;;;;;;6.66;100.00;103142.28;5054009;28;20451;-69
2021/12/17 08:58:17;;;;;;;0.40;0.30;;;;;;;6.63;100.00;103142.69;5053968;28;20494;-69
2021/12/17 09:00:45;;;;;;;0.40;0.30;;;;;;;6.52;100.00;103145.00;5054032;28;20454;-69
2021/12/17 09:03:12;;;;;;;0.40;0.30;;;;;;;6.51;100.00;103147.91;5053632;28;20827;-71
2021/12/17 09:05:42;;;;;;;0.40;0.30;;;;;;;6.51;100.00;103142.53;5053928;28;20446;-70
2021/12/17 09:08:10;;;;;;;0.40;0.30;;;;;;;6.44;100.00;103144.38;5053775;28;20466;-69
2021/12/17 09:10:37;;;;;;;0.40;0.30;;;;;;;6.45;100.00;103144.16;5053731;28;20508;-69
2021/12/17 09:13:05;;;;;;;0.40;0.30;;;;;;;6.55;100.00;103149.09;5053705;28;20449;-69
2021/12/17 09:15:32;;;;;;;0.40;0.30;;;;;;;6.69;100.00;103149.94;5053608;28;20445;-69
2021/12/17 09:17:59;;;;;;;0.40;0.20;;;;;;;6.70;100.00;103148.88;5053456;28;20489;-69
2021/12/17 09:20:26;;;;;;;0.40;0.20;;;;;;;6.62;100.00;103154.50;5048107;22;20506;-84
2021/12/17 09:22:52;;;;;;;0.40;0.30;;;;;;;6.70;100.00;103162.34;5036681;28;20443;-83
2021/12/17 09:25:19;;;;;;;0.40;0.30;;;;;;;6.73;100.00;103165.47;5037159;28;20442;-85
2021/12/17 09:27:46;;;;;;;0.40;0.30;;;;;;;6.75;100.00;103170.63;5038523;28;20443;-81
2021/12/17 09:30:19;;;;;;;0.40;0.30;;;;;;;6.59;99.89;103166.50;5038160;28;20458;-80
2021/12/17 09:32:46;;;;;;;0.40;0.30;;;;;;;6.64;99.89;103174.81;5037993;28;20437;-80
2021/12/17 09:35:13;;;;;;;0.40;0.30;;;;;;;6.60;99.92;103170.88;5037638;28;20434;-80
2021/12/17 09:37:40;;;;;;;0.40;0.20;;;;;;;6.72;100.00;103181.81;5037897;28;20489;-81
2021/12/17 09:40:10;;;;;;;0.40;0.30;;;;;;;6.68;98.93;103189.47;5038328;28;20837;-81
2021/12/17 09:42:39;;;;;;;0.40;0.20;;;;;;;6.66;99.24;103183.50;5037327;28;20435;-80
2021/12/17 09:45:07;;;;;;;0.40;0.30;;;;;;;6.70;98.79;103192.81;5037850;28;20459;-80
2021/12/17 09:47:35;;;;;;;0.40;0.27;;;;;;;6.67;98.84;103185.13;5036873;28;20813;-81
2021/12/17 09:50:01;;;;;;;0.40;0.30;;;;;;;6.70;99.05;103181.22;5037913;28;20465;-82
2021/12/17 09:52:28;;;;;;;0.40;0.30;;;;;;;6.69;98.50;103185.78;5037792;28;20447;-81
2021/12/17 09:54:57;;;;;;;0.40;0.20;;;;;;;6.71;99.17;103189.06;5038332;28;20933;-80
2021/12/17 09:57:25;;;;;;;0.40;0.20;;;;;;;6.79;99.08;103190.72;5037291;28;20490;-81
2021/12/17 09:59:52;;;;;;;0.40;0.30;;;;;;;6.89;98.80;103174.94;5037246;28;20964;-80
2021/12/17 10:02:19;;;;;;;0.40;0.30;;;;;;;6.94;98.82;103175.13;5036841;28;20798;-81
2021/12/17 10:04:47;;;;;;;0.40;0.30;;;;;;;6.90;98.24;103181.13;5037397;28;20443;-81
2021/12/17 10:07:20;;;;;;;0.40;0.30;;;;;;;6.87;98.14;103176.19;5037259;28;20439;-82
2021/12/17 10:09:48;;;;;;;0.40;0.30;;;;;;;6.83;98.22;103182.00;5038025;28;20995;-81
2021/12/17 10:12:16;;;;;;;0.40;0.23;;;;;;;6.72;98.37;103185.31;5038344;28;20454;-80
2021/12/17 10:14:43;;;;;;;0.40;0.30;;;;;;;6.68;99.04;103184.09;5036451;28;20487;-84
2021/12/17 10:17:12;;;;;;;0.40;0.30;;;;;;;6.57;99.67;103180.19;5038197;28;20490;-84
2021/12/17 10:19:46;;;;;;;0.40;0.30;;;;;;;6.72;99.53;103190.72;5037059;28;20478;-83
2021/12/17 10:22:15;;;;;;;0.40;0.30;;;;;;;6.79;99.12;103196.94;5036574;28;20446;-83
2021/12/17 10:24:44;;;;;;;0.40;0.30;;;;;;;6.81;99.09;103184.06;5034891;28;20439;-82
2021/12/17 10:27:26;;;;;;;0.40;0.30;;;;;;;6.86;99.08;103179.91;5036044;28;20470;-82
2021/12/17 10:29:53;;;;;;;0.40;0.30;;;;;;;6.88;99.06;103188.63;5035119;28;20473;-82
2021/12/17 10:32:21;;;;;;;0.40;0.30;;;;;;;6.82;98.66;103183.03;5035254;28;20446;-82
2021/12/17 10:35:17;;;;;;;0.40;0.30;;;;;;;6.95;98.37;103186.72;5036744;28;20450;-84
2021/12/17 10:37:49;;;;;;;0.40;0.30;;;;;;;6.97;98.24;103180.09;5025105;28;20509;-83
2021/12/17 10:40:22;;;;;;;0.40;0.30;;;;;;;7.02;98.09;103184.84;5037953;28;20439;-84
2021/12/17 10:45:36;;;;;;;0.50;0.40;;;;;;;6.92;98.04;103179.91;5037368;28;20482;-83
2021/12/17 10:48:30;;;;;;;0.40;0.30;;;;;;;6.83;98.82;103176.59;5038806;28;20459;-84
2021/12/17 10:51:15;;;;;;;0.40;0.30;;;;;;;6.91;98.80;103170.16;5037558;28;20791;-83
2021/12/17 10:53:50;;;;;;;0.40;0.30;;;;;;;6.94;98.75;103171.59;5035973;28;20533;-81
2021/12/17 10:56:17;;;;;;;0.40;0.30;;;;;;;7.02;98.59;103168.66;5036644;28;20426;-82
2021/12/17 10:58:57;;;;;;;0.40;0.30;;;;;;;7.02;98.55;103179.44;5036003;28;20501;-82
2021/12/17 11:01:36;;;;;;;0.40;0.30;;;;;;;7.16;97.74;103177.53;5036092;28;20442;-83
2021/12/17 11:04:12;;;;;;;0.40;0.20;;;;;;;7.24;97.26;103166.50;5036172;28;21030;-82
2021/12/17 11:06:55;;;;;;;0.40;0.30;;;;;;;7.29;96.80;103164.00;5035545;28;20451;-82
2021/12/17 11:09:46;;;;;;;0.40;0.30;;;;;;;7.37;96.82;103176.41;5035438;28;20447;-81
2021/12/17 11:12:25;;;;;;;0.40;0.30;;;;;;;7.43;97.30;103172.81;5038671;28;20439;-81
2021/12/17 11:14:52;;;;;;;0.40;0.30;;;;;;;7.43;96.00;103172.81;5044193;28;20446;-82
2021/12/17 11:17:21;;;;;;;0.40;0.30;;;;;;;7.41;96.11;103167.66;5043637;28;20491;-81
2021/12/17 11:19:52;;;;;;;0.40;0.30;;;;;;;7.29;95.69;103180.16;5044113;28;20470;-81
2021/12/17 11:22:18;;;;;;;0.40;0.30;;;;;;;7.34;96.03;103164.16;5044248;28;20410;-82
2021/12/17 11:24:46;;;;;;;0.40;0.20;;;;;;;7.27;95.35;103172.31;5042474;28;20427;-82
2021/12/17 11:27:13;;;;;;;0.40;0.30;;;;;;;7.34;95.54;103166.84;5042592;28;20807;-81
2021/12/17 11:29:42;;;;;;;0.40;0.30;;;;;;;7.32;95.12;103167.09;5043009;28;20466;-82
2021/12/17 11:32:09;;;;;;;0.40;0.30;;;;;;;7.44;95.25;103166.41;5044214;28;20450;-82
2021/12/17 11:34:36;;;;;;;0.40;0.30;;;;;;;7.41;95.24;103178.44;5044016;28;20454;-81
2021/12/17 11:37:07;;;;;;;0.40;0.30;;;;;;;7.46;94.58;103180.50;5043800;28;20809;-83
2021/12/17 11:39:37;;;;;;;0.40;0.30;;;;;;;7.50;94.43;103176.31;5044513;28;20466;-82
2021/12/17 11:42:25;;;;;;;0.40;0.30;;;;;;;7.52;94.21;103182.31;5043433;28;20846;-82
2021/12/17 11:44:54;;;;;;;0.40;0.30;;;;;;;7.47;93.76;103177.56;5042899;28;20497;-81
2021/12/17 11:47:33;;;;;;;0.40;0.30;;;;;;;7.41;93.71;103183.00;5042017;28;20444;-81
2021/12/17 11:50:05;;;;;;;0.40;0.30;;;;;;;7.44;94.17;103180.72;5042907;28;20451;-82
2021/12/17 11:52:46;;;;;;;0.40;0.30;;;;;;;7.44;94.43;103182.59;5043274;28;20443;-82
2021/12/17 11:55:27;;;;;;;0.40;0.30;;;;;;;7.52;94.06;103196.63;5043572;28;20435;-81
2021/12/17 11:57:58;;;;;;;0.40;0.27;;;;;;;7.50;94.24;103187.94;5045580;28;20494;-82
2021/12/17 12:00:29;;;;;;;0.40;0.30;;;;;;;7.43;93.76;103186.31;5041165;28;20431;-81
2021/12/17 12:03:13;;;;;;;0.40;0.27;;;;;;;7.34;93.35;103174.94;5041541;28;20802;-81
2021/12/17 12:05:42;;;;;;;0.40;0.30;;;;;;;7.41;93.62;103177.63;5040725;28;20427;-80
2021/12/17 12:08:27;;;;;;;0.40;0.30;;;;;;;7.24;92.62;103175.41;5040082;28;21028;-81
2021/12/17 12:11:05;;;;;;;0.40;0.30;;;;;;;7.25;92.50;103177.06;5041943;28;20439;-80
2021/12/17 12:13:38;;;;;;;0.40;0.30;;;;;;;7.33;92.78;103168.72;5041904;28;20447;-81
2021/12/17 12:16:06;;;;;;;0.40;0.20;;;;;;;7.21;92.44;103183.91;5041433;28;20438;-81
2021/12/17 12:18:41;;;;;;;0.40;0.30;;;;;;;7.26;92.38;103176.03;5040595;28;20494;-81
2021/12/17 12:21:09;;;;;;;0.40;0.30;;;;;;;7.21;92.33;103185.78;5039376;28;20416;-81
2021/12/17 12:23:47;;;;;;;0.40;0.30;;;;;;;7.32;91.75;103179.75;5039021;28;20836;-81
2021/12/17 12:26:34;;;;;;;0.40;0.30;;;;;;;7.42;91.49;103179.28;5039083;28;20439;-81
2021/12/17 12:29:21;;;;;;;0.40;0.30;;;;;;;7.27;90.52;103169.59;5040289;28;20471;-80
2021/12/17 12:32:00;;;;;;;0.40;0.30;;;;;;;7.09;90.24;103174.88;5039214;28;20443;-83
2021/12/17 12:34:35;;;;;;;0.40;0.30;;;;;;;7.09;90.87;103182.97;5037215;28;20876;-82
2021/12/17 12:37:05;;;;;;;0.40;0.30;;;;;;;7.17;90.87;103193.50;5037184;28;20924;-82
2021/12/17 12:39:35;;;;;;;0.40;0.30;;;;;;;7.22;91.03;103198.25;5036147;28;20487;-83
2021/12/17 12:42:06;;;;;;;0.40;0.30;;;;;;;7.26;90.68;103192.22;5037019;28;20451;-81
2021/12/17 12:45:10;;;;;;;0.40;0.30;;;;;;;7.24;91.03;103186.19;5041241;28;20450;-82
2021/12/17 12:47:51;;;;;;;0.40;0.30;;;;;;;7.21;90.82;103194.69;5040739;28;20533;-81
2021/12/17 12:50:19;;;;;;;0.40;0.30;;;;;;;7.13;91.32;103188.72;5040814;28;20510;-81
2021/12/17 12:52:47;;;;;;;0.40;0.30;;;;;;;7.11;91.81;103188.94;5043040;28;20450;-82
2021/12/17 12:55:18;;;;;;;0.40;0.30;;;;;;;7.15;91.60;103187.47;5044646;28;20453;-82
2021/12/17 12:57:47;;;;;;;0.40;0.30;;;;;;;7.21;90.92;103183.91;5044226;28;20475;-81
2021/12/17 13:00:19;;;;;;;0.40;0.30;;;;;;;7.30;91.08;103174.56;5046575;28;20440;-81
2021/12/17 13:02:49;;;;;;;0.40;0.30;;;;;;;7.38;90.88;103168.09;5044738;28;20404;-82
2021/12/17 13:05:16;;;;;;;0.40;0.30;;;;;;;7.47;90.56;103161.41;5044764;28;20412;-82
2021/12/17 13:07:47;;;;;;;0.40;0.30;;;;;;;7.50;90.18;103163.66;5045420;28;20442;-82
2021/12/17 13:10:18;;;;;;;0.40;0.30;;;;;;;7.52;90.15;103163.44;5042947;28;20432;-81
2021/12/17 13:12:50;;;;;;;0.40;0.30;;;;;;;7.58;89.79;103159.91;5042376;28;20439;-84
2021/12/17 13:15:31;;;;;;;0.40;0.30;;;;;;;7.62;89.58;103157.59;5037495;28;20466;-83
2021/12/17 13:21:06;;;;;;;0.40;0.33;;;;;;;7.68;89.55;103175.59;5037672;28;20462;-84
2021/12/17 13:23:47;;;;;;;0.40;0.30;;;;;;;7.74;89.66;103167.44;5037468;28;20464;-84
2021/12/17 13:26:14;;;;;;;0.40;0.30;;;;;;;7.72;89.01;103171.41;5037201;28;20439;-84
2021/12/17 13:28:50;;;;;;;0.40;0.30;;;;;;;7.56;88.06;103178.97;5037071;28;20470;-83
2021/12/17 13:31:39;;;;;;;0.40;0.30;;;;;;;7.49;88.46;103163.91;5037131;28;20469;-83
2021/12/17 13:34:11;;;;;;;0.40;0.30;;;;;;;7.31;88.49;103168.13;5037330;28;20809;-84
2021/12/17 13:36:43;;;;;;;0.40;0.30;;;;;;;7.32;89.35;103158.19;5036700;28;20446;-83
2021/12/17 13:39:12;;;;;;;0.40;0.30;;;;;;;7.43;89.75;103165.56;5036309;28;20487;-82
2021/12/17 13:41:41;;;;;;;0.40;0.30;;;;;;;7.40;90.22;103159.78;5036883;28;20462;-83
2021/12/17 13:44:31;;;;;;;0.40;0.30;;;;;;;7.45;90.56;103168.06;5037170;28;20430;-84
2021/12/17 13:47:14;;;;;;;0.40;0.30;;;;;;;7.50;90.41;103171.75;5037039;28;20535;-83
2021/12/17 13:49:42;;;;;;;0.40;0.30;;;;;;;7.52;90.61;103175.06;5036984;28;20485;-84
2021/12/17 13:52:10;;;;;;;0.40;0.30;;;;;;;7.54;90.27;103177.56;5036743;28;20451;-83
2021/12/17 13:54:37;;;;;;;0.40;0.30;;;;;;;7.55;90.75;103169.22;5037041;28;20443;-83
2021/12/17 13:57:06;;;;;;;0.40;0.30;;;;;;;7.53;90.67;103168.63;5036314;28;20446;-83
2021/12/17 13:59:34;;;;;;;0.40;0.30;;;;;;;7.46;90.75;103177.81;5036674;28;20498;-83
2021/12/17 14:02:08;;;;;;;0.40;0.30;;;;;;;7.43;91.11;103197.91;5036682;28;20518;-83
2021/12/17 14:04:36;;;;;;;0.40;0.30;;;;;;;7.47;91.29;103195.63;5036887;28;20512;-83